Time;durP1;ratioP1;P1;durP2;ratioP2;P2;SDS_P1;SDS_P2;PMS_P1;PMS_P2;Temp;Humidity;BMP_temperature;BMP_pressure;BME280_temperature;BME280_humidity;BME280_pressure;Samples;Min_cycle;Max_cycle;Signal;HPM_P1;HPM_P2
2021/03/26 00:00:44;;;;;;;65.62;52.53;;;;;;;23.13;55.61;100569.13;1719475;83;21135;-68
2021/03/26 00:03:14;;;;;;;63.00;50.40;;;;;;;23.11;55.65;100565.78;1716578;83;21117;-68
2021/03/26 00:05:40;;;;;;;62.83;50.20;;;;;;;23.09;55.71;100574.54;1718566;83;21615;-69
2021/03/26 00:08:06;;;;;;;60.90;49.75;;;;;;;23.09;55.75;100572.36;1720153;83;21112;-68
2021/03/26 00:10:33;;;;;;;66.37;51.37;;;;;;;23.07;55.84;100573.08;1720915;83;21079;-68
2021/03/26 00:12:59;;;;;;;70.25;50.10;;;;;;;23.06;55.89;100572.22;1719365;83;21109;-67
2021/03/26 00:15:26;;;;;;;65.83;51.68;;;;;;;23.05;55.97;100573.77;1716261;83;21165;-68
2021/03/26 00:17:51;;;;;;;65.67;50.20;;;;;;;23.03;56.01;100567.20;1718491;83;21169;-67
2021/03/26 00:20:17;;;;;;;64.70;50.52;;;;;;;23.02;56.03;100564.72;1718445;83;21138;-68
2021/03/26 00:22:44;;;;;;;66.42;49.55;;;;;;;23.01;56.06;100568.44;1719875;83;21080;-68
2021/03/26 00:25:11;;;;;;;64.17;50.23;;;;;;;23.00;56.09;100568.95;1718436;83;21713;-68
2021/03/26 00:27:37;;;;;;;61.70;49.03;;;;;;;22.99;56.11;100563.74;1720546;83;21694;-68
2021/03/26 00:30:07;;;;;;;62.98;51.23;;;;;;;22.98;56.17;100568.81;1718261;83;21103;-68
2021/03/26 00:32:33;;;;;;;65.28;49.18;;;;;;;22.96;56.22;100565.46;1720933;83;21539;-68
2021/03/26 00:35:00;;;;;;;61.75;49.20;;;;;;;22.94;56.27;100563.80;1719196;83;21191;-68
2021/03/26 00:37:26;;;;;;;65.32;48.83;;;;;;;22.93;56.28;100564.83;1718943;83;21752;-68
2021/03/26 00:39:51;;;;;;;60.52;48.87;;;;;;;22.91;56.33;100562.79;1720438;83;21683;-68
2021/03/26 00:42:19;;;;;;;63.40;48.40;;;;;;;22.90;56.39;100565.17;1720284;83;21182;-69
2021/03/26 00:44:44;;;;;;;61.48;47.25;;;;;;;22.89;56.40;100562.64;1719536;83;21575;-68
2021/03/26 00:47:11;;;;;;;59.30;47.65;;;;;;;22.86;56.47;100558.98;1717618;83;21713;-68
2021/03/26 00:49:36;;;;;;;62.13;48.70;;;;;;;22.84;56.50;100560.52;1714929;83;21111;-68
2021/03/26 00:52:04;;;;;;;62.35;49.03;;;;;;;22.84;56.62;100562.39;1719355;83;21124;-69
2021/03/26 00:54:30;;;;;;;64.20;48.58;;;;;;;22.83;56.60;100562.87;1719698;83;21613;-69
2021/03/26 00:56:56;;;;;;;57.83;46.92;;;;;;;22.82;56.64;100557.69;1718560;83;21069;-68
2021/03/26 00:59:22;;;;;;;60.33;46.50;;;;;;;22.81;56.67;100558.72;1719722;83;21140;-68
2021/03/26 01:01:47;;;;;;;59.00;46.15;;;;;;;22.80;56.68;100558.38;1721756;83;21113;-69
2021/03/26 01:04:13;;;;;;;61.40;47.70;;;;;;;22.79;56.74;100558.06;1718632;83;21509;-68
2021/03/26 01:06:39;;;;;;;54.65;46.25;;;;;;;22.78;56.78;100558.58;1719663;83;21126;-68
2021/03/26 01:09:06;;;;;;;63.87;47.95;;;;;;;22.77;56.84;100554.70;1719452;83;21109;-68
2021/03/26 01:11:35;;;;;;;56.92;45.35;;;;;;;22.76;56.89;100552.53;1721173;83;21579;-68
2021/03/26 01:14:03;;;;;;;56.23;46.70;;;;;;;22.76;56.92;100557.08;1718383;83;21123;-68
2021/03/26 01:16:28;;;;;;;56.80;43.98;;;;;;;22.74;56.93;100559.97;1713674;83;21117;-69
2021/03/26 01:18:55;;;;;;;65.50;48.50;;;;;;;22.74;57.00;100557.77;1706094;84;21606;-68
2021/03/26 01:21:24;;;;;;;57.73;45.52;;;;;;;22.72;57.09;100560.66;1711633;83;21561;-68
2021/03/26 01:23:50;;;;;;;59.83;45.25;;;;;;;22.71;57.10;100559.83;1714361;83;21146;-69
2021/03/26 01:26:17;;;;;;;63.92;45.78;;;;;;;22.71;57.24;100562.52;1719691;83;21141;-69
2021/03/26 01:28:42;;;;;;;56.37;44.45;;;;;;;22.71;57.22;100564.38;1719811;83;21073;-69
2021/03/26 01:31:08;;;;;;;55.67;44.23;;;;;;;22.69;57.26;100563.20;1718782;83;21583;-68
2021/03/26 01:33:34;;;;;;;57.10;45.75;;;;;;;22.69;57.26;100563.20;1720075;83;21087;-68
2021/03/26 01:36:00;;;;;;;59.80;46.15;;;;;;;22.69;57.31;100562.37;1720355;83;21192;-69
2021/03/26 01:38:27;;;;;;;58.30;45.80;;;;;;;22.68;57.35;100559.36;1716417;83;21605;-69
2021/03/26 01:40:57;;;;;;;58.90;45.03;;;;;;;22.66;57.32;100562.22;1721080;83;21598;-68
2021/03/26 01:43:29;;;;;;;55.08;43.58;;;;;;;22.67;57.40;100559.02;1718093;83;21254;-68
2021/03/26 01:45:56;;;;;;;53.78;43.70;;;;;;;22.67;57.46;100556.33;1719232;83;21544;-69
2021/03/26 01:48:32;;;;;;;56.05;44.55;;;;;;;22.66;57.50;100556.84;1717554;83;21108;-69
2021/03/26 01:51:00;;;;;;;54.48;43.78;;;;;;;22.65;57.48;100557.87;1715617;83;21150;-70
2021/03/26 01:53:27;;;;;;;57.88;44.10;;;;;;;22.66;57.52;100564.08;1721075;83;21598;-69
2021/03/26 01:55:55;;;;;;;54.93;43.70;;;;;;;22.65;57.58;100561.08;1717209;83;21162;-69
2021/03/26 01:58:24;;;;;;;53.40;42.50;;;;;;;22.63;57.65;100559.89;1720392;83;21174;-69
2021/03/26 02:00:53;;;;;;;53.52;42.50;;;;;;;22.64;57.67;100565.63;1714325;83;21172;-70
2021/03/26 02:03:28;;;;;;;53.50;43.33;;;;;;;22.63;57.66;100555.86;1718407;83;21100;-69
2021/03/26 02:05:57;;;;;;;54.42;42.23;;;;;;;22.63;57.67;100556.38;1712121;83;21150;-69
2021/03/26 02:08:27;;;;;;;60.92;42.78;;;;;;;22.62;57.73;100551.52;1703821;83;21259;-68
2021/03/26 02:10:54;;;;;;;50.78;41.08;;;;;;;22.63;58.00;100551.83;1702796;83;21115;-68
2021/03/26 02:13:29;;;;;;;52.33;42.10;;;;;;;22.64;58.14;100551.34;1702649;84;21611;-68
2021/03/26 02:15:57;;;;;;;51.25;40.48;;;;;;;22.65;58.28;100551.14;1702724;84;21131;-69
2021/03/26 02:18:27;;;;;;;55.12;43.42;;;;;;;22.65;58.43;100548.45;1702779;84;21709;-68
2021/03/26 02:20:55;;;;;;;55.40;41.18;;;;;;;22.66;58.57;100551.46;1705237;83;21159;-68
2021/03/26 02:23:24;;;;;;;54.70;40.92;;;;;;;22.66;58.70;100548.77;1702428;83;21132;-68
2021/03/26 02:25:52;;;;;;;48.90;39.70;;;;;;;22.67;58.74;100548.26;1702802;84;21162;-68
2021/03/26 02:28:19;;;;;;;52.27;41.23;;;;;;;22.68;58.82;100552.64;1704149;84;21558;-68
2021/03/26 02:30:48;;;;;;;50.83;41.25;;;;;;;22.68;58.90;100552.13;1705521;84;21181;-68
2021/03/26 02:33:15;;;;;;;56.73;41.28;;;;;;;22.68;59.04;100556.67;1705974;83;21614;-68
2021/03/26 02:35:44;;;;;;;51.33;42.43;;;;;;;22.69;59.09;100555.64;1705595;84;21188;-68
2021/03/26 02:38:26;;;;;;;51.05;40.08;;;;;;;22.69;59.25;100558.33;1705388;84;21165;-68
2021/03/26 02:41:07;;;;;;;51.83;40.03;;;;;;;22.68;59.26;100554.81;1705700;84;21161;-68
2021/03/26 02:43:45;;;;;;;46.00;39.08;;;;;;;22.69;59.47;100554.30;1707101;83;21117;-68
2021/03/26 02:46:23;;;;;;;47.17;40.10;;;;;;;22.68;59.48;100554.81;1706268;83;21138;-68
2021/03/26 02:49:08;;;;;;;52.33;40.67;;;;;;;22.68;59.59;100554.81;1705825;83;21156;-68
2021/03/26 02:51:40;;;;;;;51.60;39.35;;;;;;;22.69;59.63;100556.98;1706038;83;21554;-68
2021/03/26 02:54:25;;;;;;;47.70;37.88;;;;;;;22.68;59.70;100560.70;1705841;83;21110;-68
2021/03/26 02:57:09;;;;;;;48.38;39.48;;;;;;;22.68;59.71;100558.02;1706046;83;21165;-68
2021/03/26 02:59:50;;;;;;;48.33;40.03;;;;;;;22.68;59.78;100560.70;1689257;84;21201;-68
2021/03/26 03:02:20;;;;;;;44.03;36.25;;;;;;;22.68;59.84;100563.39;1706044;83;21105;-68
2021/03/26 03:05:09;;;;;;;46.92;40.40;;;;;;;22.67;59.87;100563.91;1705715;83;21352;-69
2021/03/26 03:07:38;;;;;;;49.40;40.73;;;;;;;22.67;59.91;100565.73;1705857;84;21058;-68
2021/03/26 03:10:17;;;;;;;49.30;39.25;;;;;;;22.66;59.96;100568.11;1706310;83;21181;-68
2021/03/26 03:12:43;;;;;;;47.40;39.23;;;;;;;22.66;59.99;100577.02;1705845;83;21157;-68
2021/03/26 03:15:22;;;;;;;62.35;41.13;;;;;;;22.66;60.03;100578.87;1705953;84;21642;-69
2021/03/26 03:17:57;;;;;;;51.18;41.37;;;;;;;22.66;60.12;100577.53;1705832;83;21208;-69
2021/03/26 03:20:27;;;;;;;47.55;38.80;;;;;;;22.65;60.18;100582.59;1697734;83;21158;-69
2021/03/26 03:22:59;;;;;;;48.28;39.67;;;;;;;22.66;60.21;100589.63;1668222;84;21132;-69
2021/03/26 03:25:27;;;;;;;47.40;38.95;;;;;;;22.67;60.24;100588.59;1672079;84;21315;-69
2021/03/26 03:28:12;;;;;;;50.38;39.27;;;;;;;22.67;60.28;100591.29;1676402;84;21557;-69
2021/03/26 03:30:44;;;;;;;46.95;39.00;;;;;;;22.67;60.31;100589.46;1674121;84;21183;-69
2021/03/26 03:33:19;;;;;;;47.33;36.75;;;;;;;22.66;60.21;100591.80;1675079;84;21186;-69
2021/03/26 03:36:06;;;;;;;42.98;36.53;;;;;;;22.66;60.14;100590.45;1674928;84;21138;-69
2021/03/26 03:38:42;;;;;;;46.13;35.52;;;;;;;22.66;60.08;100592.31;1688921;84;21094;-69
2021/03/26 03:41:40;;;;;;;46.37;36.13;;;;;;;22.66;59.98;100590.97;1698333;84;21150;-69
2021/03/26 03:44:40;;;;;;;42.08;35.55;;;;;;;22.64;59.86;100592.52;1698734;84;21172;-70
2021/03/26 03:47:12;;;;;;;42.03;36.35;;;;;;;22.64;59.80;100592.52;1682842;83;21171;-71
2021/03/26 03:49:42;;;;;;;;;;;;;;;22.62;59.71;100584.30;1696244;84;21307;-71
2021/03/26 03:52:14;;;;;;;46.23;35.95;;;;;;;22.61;59.90;100584.81;1677498;84;20255;-70
2021/03/26 03:54:45;;;;;;;;;;;;;;;22.62;59.95;100591.02;1676552;85;21196;-71
2021/03/26 03:57:14;;;;;;;43.87;36.85;;;;;;;22.62;59.95;100593.20;1675799;84;20183;-70
2021/03/26 04:00:08;;;;;;;46.05;36.23;;;;;;;22.62;59.82;100593.71;1698716;83;21586;-70
2021/03/26 04:02:46;;;;;;;44.45;34.25;;;;;;;22.61;59.78;100581.30;1698448;83;21098;-71
2021/03/26 04:05:16;;;;;;;41.83;33.92;;;;;;;22.61;59.74;100584.81;1699040;83;21189;-70
2021/03/26 04:07:54;;;;;;;43.00;34.35;;;;;;;22.60;59.65;100577.74;1693385;84;21202;-71
2021/03/26 04:10:22;;;;;;;43.63;35.88;;;;;;;22.60;59.61;100572.36;1674672;84;21195;-71
2021/03/26 04:12:51;;;;;;;41.80;35.23;;;;;;;22.59;59.66;100560.46;1693822;84;21161;-71
2021/03/26 04:15:21;;;;;;;44.30;34.88;;;;;;;22.59;59.69;100562.63;1682318;84;21152;-71
2021/03/26 04:17:50;;;;;;;44.10;35.00;;;;;;;22.59;59.66;100563.15;1685829;84;21276;-70
2021/03/26 04:20:25;;;;;;;44.93;35.05;;;;;;;22.58;59.62;100563.66;1689436;83;21150;-70
2021/03/26 04:22:55;;;;;;;42.67;34.30;;;;;;;22.59;59.62;100566.67;1639691;86;21100;-70
2021/03/26 04:25:24;;;;;;;40.95;33.88;;;;;;;22.59;59.66;100568.53;1672348;84;21214;-70
2021/03/26 04:27:53;;;;;;;42.05;34.27;;;;;;;22.59;59.64;100576.59;1686257;83;21155;-70
2021/03/26 04:30:32;;;;;;;43.85;34.75;;;;;;;22.56;59.58;100579.13;1671366;84;21179;-70
2021/03/26 04:32:58;;;;;;;39.88;33.78;;;;;;;22.58;59.64;100595.10;1668649;84;21137;-70
2021/03/26 04:35:26;;;;;;;43.85;33.78;;;;;;;22.59;59.63;100586.01;1670843;86;21313;-71
2021/03/26 04:38:16;;;;;;;41.70;34.48;;;;;;;22.58;59.68;100581.66;1678122;84;21127;-71
2021/03/26 04:40:48;;;;;;;40.30;33.35;;;;;;;22.58;59.63;100587.87;1681049;83;21151;-70
2021/03/26 04:43:27;;;;;;;44.63;35.28;;;;;;;22.57;59.58;100575.93;1670884;86;21115;-70
2021/03/26 04:45:59;;;;;;;38.13;33.78;;;;;;;22.58;59.56;100584.34;1670170;84;21163;-70
2021/03/26 04:48:49;;;;;;;42.93;35.08;;;;;;;22.57;59.65;100582.66;1685295;84;21267;-69
2021/03/26 04:51:19;;;;;;;43.80;35.43;;;;;;;22.58;59.70;100579.80;1699214;83;21170;-70
2021/03/26 04:53:48;;;;;;;41.85;33.53;;;;;;;22.58;59.74;100584.34;1698629;84;21126;-70
2021/03/26 04:56:21;;;;;;;38.45;32.70;;;;;;;22.57;59.77;100590.20;1688976;83;21175;-70
2021/03/26 04:58:53;;;;;;;40.50;34.80;;;;;;;22.57;59.86;100574.07;1682343;84;21110;-70
2021/03/26 05:01:19;;;;;;;39.95;31.60;;;;;;;22.58;59.89;100583.00;1675872;83;21281;-70
2021/03/26 05:03:51;;;;;;;40.23;32.78;;;;;;;22.59;59.89;100586.01;1670689;84;21590;-70
2021/03/26 05:06:21;;;;;;;42.17;34.43;;;;;;;22.57;59.94;100587.52;1671419;84;21170;-70
2021/03/26 05:08:50;;;;;;;37.40;32.15;;;;;;;22.57;59.89;100587.52;1680427;84;21580;-70
2021/03/26 05:11:19;;;;;;;38.65;32.60;;;;;;;22.58;59.83;100581.66;1690478;84;21146;-70
2021/03/26 05:13:51;;;;;;;35.63;30.57;;;;;;;22.56;59.76;100587.20;1698861;84;21138;-70
2021/03/26 05:16:36;;;;;;;36.48;31.10;;;;;;;22.55;59.75;100583.37;1687393;83;21176;-70
2021/03/26 05:19:17;;;;;;;39.08;31.50;;;;;;;22.55;59.64;100582.02;1673002;84;21139;-70
2021/03/26 05:21:47;;;;;;;40.03;32.73;;;;;;;22.54;59.64;100577.16;1705892;83;21089;-70
2021/03/26 05:24:34;;;;;;;94.00;52.25;;;;;;;22.53;59.65;100566.05;1705634;84;21235;-69
2021/03/26 05:27:02;;;;;;;131.35;66.57;;;;;;;22.55;59.89;100568.58;1705762;84;21583;-69
2021/03/26 05:29:28;;;;;;;91.17;49.53;;;;;;;22.59;60.33;100565.84;1706143;84;21121;-68
2021/03/26 05:32:03;;;;;;;80.75;48.02;;;;;;;22.61;60.52;100571.37;1706063;84;21148;-67
2021/03/26 05:34:35;;;;;;;72.17;43.13;;;;;;;22.64;60.58;100575.55;1706899;83;21129;-68
2021/03/26 05:37:04;;;;;;;68.57;42.55;;;;;;;22.63;60.61;100574.69;1701585;83;21147;-68
2021/03/26 05:39:33;;;;;;;72.25;41.65;;;;;;;22.63;60.68;100574.69;1700886;83;22026;-69
2021/03/26 05:42:09;;;;;;;63.28;39.45;;;;;;;22.65;60.68;100575.86;1722243;83;21637;-68
2021/03/26 05:45:02;;;;;;;57.60;37.73;;;;;;;22.63;60.66;100579.23;1719045;83;21205;-72
2021/03/26 05:47:40;;;;;;;68.45;41.08;;;;;;;22.62;60.65;100585.13;1705058;84;21099;-71
2021/03/26 05:58:56;;;;;;;57.27;39.05;;;;;;;22.67;61.42;100585.42;1913170;74;23500;-70
2021/03/26 06:01:55;;;;;;;52.30;35.58;;;;;;;22.64;61.44;100584.96;1832080;76;21139;-70
2021/03/26 06:04:41;;;;;;;50.23;35.98;;;;;;;22.64;61.45;100580.93;1831409;77;21151;-69
2021/03/26 06:07:28;;;;;;;53.00;35.10;;;;;;;22.63;61.47;100590.82;1831632;78;21083;-70
2021/03/26 06:10:13;;;;;;;55.38;35.28;;;;;;;22.63;61.44;100589.48;1831593;77;21135;-70
2021/03/26 06:13:12;;;;;;;44.90;33.78;;;;;;;22.65;61.44;100593.34;1831595;78;21246;-69
2021/03/26 06:15:47;;;;;;;42.62;30.70;;;;;;;22.64;61.38;100591.69;1831312;77;21131;-69
2021/03/26 06:18:22;;;;;;;35.23;27.40;;;;;;;22.64;61.20;100597.89;1814508;78;21600;-69
2021/03/26 06:21:18;;;;;;;35.15;27.35;;;;;;;22.62;60.94;100598.58;1809599;78;21567;-69
2021/03/26 06:24:17;;;;;;;34.18;25.30;;;;;;;22.62;60.72;100606.64;1818967;78;21099;-69
2021/03/26 06:26:59;;;;;;;30.77;23.42;;;;;;;22.59;60.40;100604.32;1820165;78;21118;-70
2021/03/26 06:29:43;;;;;;;30.97;23.60;;;;;;;22.58;60.00;100603.17;1831627;78;21118;-70
2021/03/26 06:32:13;;;;;;;28.07;23.67;;;;;;;22.54;59.83;100601.36;1831259;78;21096;-69
2021/03/26 06:34:51;;;;;;;32.30;23.40;;;;;;;22.52;59.65;100610.63;1831738;78;21258;-71
2021/03/26 06:37:37;;;;;;;34.98;23.35;;;;;;;22.50;59.35;100608.61;1775717;78;21273;-74
2021/03/26 06:40:24;;;;;;;37.60;23.98;;;;;;;22.47;59.35;100612.01;1831399;78;21172;-75
2021/03/26 06:43:05;;;;;;;33.08;22.50;;;;;;;22.47;59.34;100607.98;1831659;78;21083;-74
2021/03/26 06:45:50;;;;;;;36.20;23.22;;;;;;;22.46;59.22;100604.94;1831698;78;21278;-74
2021/03/26 06:48:31;;;;;;;30.55;20.32;;;;;;;22.45;59.19;100603.28;1831381;78;21564;-73
2021/03/26 06:51:13;;;;;;;29.40;21.23;;;;;;;22.45;59.13;100604.62;1831566;78;21107;-73
2021/03/26 06:54:00;;;;;;;30.10;21.85;;;;;;;22.45;59.08;100607.31;1831524;78;21113;-74
2021/03/26 06:56:39;;;;;;;31.90;21.25;;;;;;;22.45;59.01;100606.48;1830392;78;21156;-73
2021/03/26 06:59:11;;;;;;;30.57;22.30;;;;;;;22.46;58.94;100608.14;1832184;77;21144;-73
2021/03/26 07:01:57;;;;;;;31.42;20.85;;;;;;;22.46;58.84;100611.66;1831810;77;21088;-73
2021/03/26 07:04:35;;;;;;;34.95;24.40;;;;;;;22.47;58.77;100610.66;1832388;77;21123;-72
2021/03/26 07:07:07;;;;;;;27.17;20.45;;;;;;;22.45;58.67;100610.00;1829952;77;21083;-72
2021/03/26 07:09:52;;;;;;;26.42;20.52;;;;;;;22.47;58.61;100612.01;1822635;78;21134;-72
2021/03/26 07:12:36;;;;;;;24.50;20.20;;;;;;;22.48;58.56;100612.33;1824932;78;21522;-71
2021/03/26 07:15:18;;;;;;;25.85;20.10;;;;;;;22.50;58.47;100618.85;1830716;78;21290;-71
2021/03/26 07:17:50;;;;;;;28.85;19.00;;;;;;;22.53;58.39;100614.97;1830876;77;21318;-71
2021/03/26 07:20:35;;;;;;;28.05;18.92;;;;;;;22.53;58.31;100624.38;1831230;77;21568;-71
2021/03/26 07:23:37;;;;;;;24.70;18.62;;;;;;;22.55;58.21;100621.02;1798107;79;21113;-70
2021/03/26 07:26:13;;;;;;;26.15;19.98;;;;;;;22.57;58.11;100620.30;1750577;80;21146;-74
2021/03/26 07:28:56;;;;;;;25.43;19.02;;;;;;;22.59;57.94;100613.73;1751767;80;21075;-72
2021/03/26 12:08:05;;;;;;;12.98;11.38;;;;;;;25.46;44.36;100498.14;1889719;74;23081;-71
2021/03/26 12:10:40;;;;;;;14.30;11.97;;;;;;;25.41;45.15;100496.06;1831021;76;21266;-71
2021/03/26 12:13:25;;;;;;;18.60;11.53;;;;;;;25.44;45.80;100482.67;1817612;78;21087;-71
2021/03/26 12:16:16;;;;;;;13.50;11.00;;;;;;;25.52;45.69;100484.34;1820777;78;21241;-70
2021/03/26 12:18:57;;;;;;;15.72;12.05;;;;;;;25.58;45.65;100484.34;1800569;78;21094;-69
2021/03/26 12:21:34;;;;;;;14.50;9.68;;;;;;;25.64;45.48;100477.30;1820862;78;21137;-69
2021/03/26 12:24:14;;;;;;;12.58;9.20;;;;;;;25.67;45.63;100480.42;1827918;78;21087;-70
2021/03/26 12:26:58;;;;;;;12.50;10.23;;;;;;;25.71;45.80;100478.13;1818253;78;21564;-69
2021/03/26 12:29:28;;;;;;;13.55;10.58;;;;;;;25.72;45.47;100477.08;1825553;78;21532;-69
2021/03/26 12:32:03;;;;;;;14.73;10.48;;;;;;;25.73;45.28;100472.84;1819865;78;21124;-69
2021/03/26 12:34:45;;;;;;;15.53;11.35;;;;;;;25.76;45.13;100467.52;1806337;78;21536;-69
2021/03/26 12:37:14;;;;;;;12.50;10.20;;;;;;;25.75;44.84;100468.56;1826509;78;21091;-69
2021/03/26 12:39:44;;;;;;;17.95;11.33;;;;;;;25.75;44.99;100461.81;1811914;78;21177;-69
2021/03/26 12:42:16;;;;;;;14.85;10.30;;;;;;;25.75;44.71;100457.75;1816546;78;21119;-71
2021/03/26 12:44:45;;;;;;;16.37;11.10;;;;;;;25.74;44.65;100458.28;1813615;78;21126;-70
2021/03/26 12:47:35;;;;;;;17.80;10.45;;;;;;;25.74;44.54;100451.52;1817436;78;21561;-70
2021/03/26 12:50:08;;;;;;;14.68;9.53;;;;;;;25.73;44.54;100449.87;1829508;78;21151;-70
2021/03/26 12:52:44;;;;;;;13.10;10.15;;;;;;;25.73;44.54;100435.50;1815629;78;21112;-71
2021/03/26 12:55:33;;;;;;;13.80;9.35;;;;;;;25.73;44.54;100444.95;1816069;78;21312;-70
2021/03/26 12:58:20;;;;;;;16.48;10.23;;;;;;;25.72;44.66;100440.60;1819930;77;21107;-70
2021/03/26 13:00:52;;;;;;;17.57;9.78;;;;;;;25.72;44.62;100438.72;1810894;78;21126;-70
2021/03/26 13:03:40;;;;;;;17.42;9.98;;;;;;;25.70;44.64;100434.06;1824407;78;21071;-70
2021/03/26 13:06:15;;;;;;;15.13;10.48;;;;;;;25.69;44.37;100432.91;1818441;77;21143;-70
2021/03/26 13:08:47;;;;;;;15.72;8.65;;;;;;;25.67;44.38;100432.30;1804020;78;21129;-69
2021/03/26 13:11:35;;;;;;;16.60;11.10;;;;;;;25.66;44.49;100434.15;1814617;78;21273;-69
2021/03/26 13:14:17;;;;;;;13.83;9.73;;;;;;;25.65;44.33;100429.79;1813708;78;21159;-69
2021/03/26 13:16:48;;;;;;;12.80;8.45;;;;;;;25.64;44.38;100427.31;1818082;77;21087;-69
2021/03/26 13:19:24;;;;;;;15.48;9.88;;;;;;;25.62;44.35;100427.50;1819931;77;21510;-69
2021/03/26 13:22:13;;;;;;;11.18;9.15;;;;;;;25.61;44.43;100423.14;1809515;78;21083;-70
2021/03/26 13:24:55;;;;;;;14.68;7.60;;;;;;;25.60;44.49;100417.94;1825976;78;21091;-69
2021/03/26 13:27:24;;;;;;;12.93;7.90;;;;;;;25.59;44.40;100413.58;1815575;77;21865;-70
2021/03/26 13:30:12;;;;;;;10.95;9.05;;;;;;;25.58;44.32;100422.73;1817442;78;21133;-70
2021/03/26 13:33:02;;;;;;;15.00;9.00;;;;;;;25.55;44.18;100422.63;1810485;78;21115;-70
2021/03/26 13:35:41;;;;;;;12.00;8.58;;;;;;;25.54;44.19;100422.32;1804290;78;21623;-71
2021/03/26 13:38:19;;;;;;;13.30;9.65;;;;;;;25.53;44.17;100415.76;1819849;77;21073;-68
2021/03/26 13:40:49;;;;;;;14.90;9.43;;;;;;;25.52;43.92;100413.58;1823809;78;21641;-68
2021/03/26 13:43:25;;;;;;;12.30;8.98;;;;;;;25.48;43.66;100403.70;1816103;78;21144;-68
2021/03/26 13:45:54;;;;;;;11.83;8.70;;;;;;;25.48;43.74;100405.06;1817882;77;21153;-68
2021/03/26 13:48:23;;;;;;;12.53;8.93;;;;;;;25.45;43.50;100404.13;1817697;78;21600;-69
2021/03/26 13:51:04;;;;;;;12.18;8.58;;;;;;;25.44;43.69;100402.47;1812749;77;21277;-68
2021/03/26 13:53:52;;;;;;;11.90;8.18;;;;;;;25.43;43.96;100399.95;1822039;77;21083;-68
2021/03/26 13:56:24;;;;;;;13.78;8.95;;;;;;;25.41;44.07;100392.08;1817329;78;21108;-67
2021/03/26 13:58:59;;;;;;;12.18;7.72;;;;;;;25.40;44.08;100397.67;1830849;77;21072;-67
2021/03/26 14:01:31;;;;;;;11.35;7.92;;;;;;;25.37;44.00;100401.63;1814192;77;21396;-69
2021/03/26 14:04:18;;;;;;;14.28;8.03;;;;;;;25.36;43.92;100397.25;1807393;78;21239;-68
2021/03/26 14:06:57;;;;;;;12.05;7.78;;;;;;;25.37;43.95;100395.38;1822874;77;21112;-68
2021/03/26 14:09:28;;;;;;;12.43;7.37;;;;;;;25.35;44.15;100397.47;1811532;78;21168;-69
2021/03/26 14:12:06;;;;;;;17.23;9.10;;;;;;;25.35;44.40;100397.47;1813034;78;21124;-69
2021/03/26 14:14:45;;;;;;;17.55;8.33;;;;;;;25.37;44.66;100388.63;1808483;78;21621;-69
2021/03/26 14:17:32;;;;;;;16.70;8.43;;;;;;;25.37;44.86;100387.27;1824882;78;21107;-70
2021/03/26 14:20:11;;;;;;;19.98;8.90;;;;;;;25.37;44.88;100380.03;1795876;79;21579;-70
2021/03/26 14:22:52;;;;;;;22.40;11.20;;;;;;;25.40;45.62;100386.37;1821053;78;21108;-69
2021/03/26 14:25:31;;;;;;;32.27;11.67;;;;;;;25.41;43.47;100384.50;1812608;78;21101;-70
2021/03/26 14:28:20;;;;;;;20.60;10.65;;;;;;;25.34;41.77;100379.61;1831279;77;21233;-69
2021/03/26 14:31:05;;;;;;;17.42;9.88;;;;;;;25.30;41.71;100372.94;1805197;77;21202;-69
2021/03/26 14:33:43;;;;;;;18.07;10.30;;;;;;;25.26;41.52;100373.34;1807071;78;21231;-70
2021/03/26 14:36:19;;;;;;;19.32;9.10;;;;;;;25.27;41.93;100372.83;1830468;78;21115;-69
2021/03/26 14:38:56;;;;;;;19.07;9.48;;;;;;;25.24;41.82;100366.00;1806175;78;21093;-69
2021/03/26 14:41:35;;;;;;;15.53;8.78;;;;;;;25.22;41.78;100364.01;1804620;78;21564;-69
2021/03/26 14:44:13;;;;;;;14.35;9.05;;;;;;;25.21;42.02;100364.23;1842329;77;21789;-69
2021/03/26 14:46:45;;;;;;;10.63;8.08;;;;;;;25.20;42.05;100358.49;1815945;77;21114;-70
2021/03/26 14:49:34;;;;;;;11.03;7.47;;;;;;;25.19;42.04;100360.37;1798140;78;21117;-70
2021/03/26 14:52:26;;;;;;;13.78;7.40;;;;;;;25.18;42.03;100361.94;1806003;78;21060;-70
2021/03/26 14:55:01;;;;;;;11.67;7.40;;;;;;;25.16;42.12;100364.00;1804266;78;21124;-70
2021/03/26 14:57:30;;;;;;;13.78;7.42;;;;;;;25.14;42.04;100363.36;1806087;78;21492;-71
2021/03/26 15:00:18;;;;;;;11.22;6.95;;;;;;;25.12;42.06;100362.23;1816575;78;21624;-70
2021/03/26 15:02:48;;;;;;;12.47;7.58;;;;;;;25.11;42.15;100362.42;1823377;78;21548;-69
2021/03/26 15:05:17;;;;;;;13.65;7.08;;;;;;;25.08;42.13;100358.26;1803503;77;21103;-70
2021/03/26 15:07:46;;;;;;;11.68;6.17;;;;;;;25.08;42.24;100360.95;1819271;77;21271;-71
2021/03/26 15:10:40;;;;;;;9.93;6.75;;;;;;;25.07;42.22;100355.75;1791823;79;21186;-69
2021/03/26 15:13:26;;;;;;;11.80;6.83;;;;;;;25.06;41.90;100357.62;1773272;79;21106;-69
2021/03/26 15:16:12;;;;;;;9.53;6.20;;;;;;;25.05;41.76;100353.27;1771266;79;21458;-70
2021/03/26 15:18:54;;;;;;;9.55;6.72;;;;;;;25.04;41.80;100354.28;1757703;81;21083;-70
2021/03/26 15:21:32;;;;;;;13.37;7.73;;;;;;;25.01;41.67;100346.09;1773141;80;21102;-70
2021/03/26 15:24:13;;;;;;;11.60;8.03;;;;;;;24.99;41.14;100348.16;1780055;80;21098;-69
2021/03/26 15:26:43;;;;;;;11.63;8.95;;;;;;;24.95;40.63;100348.79;1777542;80;21130;-68
2021/03/26 15:29:18;;;;;;;12.70;8.38;;;;;;;24.90;40.17;100345.33;1787917;80;21232;-69
2021/03/26 15:31:50;;;;;;;11.40;8.40;;;;;;;24.85;39.91;100343.78;1775240;80;21137;-68
2021/03/26 15:34:39;;;;;;;10.93;7.45;;;;;;;24.82;39.69;100341.49;1771134;80;21224;-68
2021/03/26 15:37:29;;;;;;;13.58;8.75;;;;;;;24.77;39.56;100339.39;1778193;80;21106;-67
2021/03/26 15:40:05;;;;;;;10.78;8.00;;;;;;;24.75;39.24;100343.34;1782249;79;21745;-69
2021/03/26 15:42:41;;;;;;;12.33;8.05;;;;;;;24.71;39.05;100338.87;1784387;80;21125;-71
2021/03/26 15:45:10;;;;;;;14.60;7.72;;;;;;;24.70;38.97;100341.24;1772824;80;21163;-77
2021/03/26 15:47:49;;;;;;;15.93;8.23;;;;;;;24.68;39.08;100343.33;1759568;81;21462;-77
2021/03/26 15:50:30;;;;;;;15.70;8.95;;;;;;;24.68;39.02;100344.68;1770624;80;21165;-80
2021/03/26 15:53:08;;;;;;;10.00;6.87;;;;;;;24.68;38.89;100345.17;1765491;80;21651;-74
2021/03/26 15:55:47;;;;;;;11.97;8.15;;;;;;;24.65;39.10;100351.00;1782725;80;21514;-75
2021/03/26 15:58:33;;;;;;;11.83;7.08;;;;;;;24.64;38.84;100347.97;1776645;80;21090;-74
2021/03/26 16:01:08;;;;;;;11.68;8.25;;;;;;;24.62;38.92;100349.53;1767835;80;21109;-74
2021/03/26 16:04:05;;;;;;;11.65;7.55;;;;;;;24.61;38.48;100341.11;1781883;80;21109;-74
2021/03/26 16:06:49;;;;;;;11.10;7.53;;;;;;;24.60;38.77;100340.80;1781085;80;21095;-74
2021/03/26 16:09:38;;;;;;;14.68;8.60;;;;;;;24.58;38.84;100341.54;1767561;80;21691;-75
2021/03/26 16:12:10;;;;;;;13.48;8.63;;;;;;;24.60;38.70;100339.45;1776607;80;21396;-75
2021/03/26 16:14:55;;;;;;;12.43;8.45;;;;;;;24.57;38.66;100343.38;1803200;79;21521;-75
2021/03/26 16:17:41;;;;;;;10.00;7.40;;;;;;;24.56;38.60;100340.38;1790899;80;21106;-75
2021/03/26 16:20:11;;;;;;;12.25;8.68;;;;;;;24.55;38.80;100341.94;1774483;80;21164;-75
2021/03/26 16:23:00;;;;;;;11.60;8.20;;;;;;;24.54;38.65;100337.55;1738062;80;21107;-75
2021/03/26 16:25:52;;;;;;;9.60;7.15;;;;;;;24.53;38.60;100328.64;1785993;80;21149;-75
2021/03/26 16:28:30;;;;;;;14.35;9.63;;;;;;;24.50;38.83;100335.78;1789733;80;21098;-74
2021/03/26 16:31:22;;;;;;;13.55;7.80;;;;;;;24.49;38.43;100336.83;1785557;80;21614;-74
2021/03/26 16:34:17;;;;;;;9.70;7.78;;;;;;;24.49;38.65;100336.83;1799080;79;21068;-74
2021/03/26 16:37:05;;;;;;;11.73;7.60;;;;;;;24.47;38.75;100341.58;1777298;79;21082;-73